Time;durP1;ratioP1;P1;durP2;ratioP2;P2;SDS_P1;SDS_P2;PMS_P1;PMS_P2;Temp;Humidity;BMP_temperature;BMP_pressure;BME280_temperature;BME280_humidity;BME280_pressure;Samples;Min_cycle;Max_cycle;Signal;HPM_P1;HPM_P2
2021/04/01 00:02:03;;;;;;;0.60;0.60;;;9.00;99.90;;;;;;6148558;23;20178;-82
2021/04/01 00:04:29;;;;;;;0.60;0.60;;;9.20;99.90;;;;;;6147239;23;20182;-81
2021/04/01 00:06:56;;;;;;;0.60;0.60;;;9.10;99.90;;;;;;6147518;23;20177;-81
2021/04/01 00:09:22;;;;;;;0.60;0.60;;;9.00;99.90;;;;;;6158343;23;20622;-81
2021/04/01 00:11:48;;;;;;;0.60;0.60;;;9.00;99.90;;;;;;6154294;23;20184;-82
2021/04/01 00:14:18;;;;;;;0.60;0.60;;;9.70;99.90;;;;;;6151368;23;20213;-81
2021/04/01 00:16:44;;;;;;;0.60;0.60;;;8.40;99.90;;;;;;6151400;23;20619;-81
2021/04/01 00:19:11;;;;;;;0.60;0.60;;;10.70;99.90;;;;;;6151717;23;20178;-82
2021/04/01 00:21:38;;;;;;;0.60;0.60;;;9.10;99.90;;;;;;6151265;23;20189;-81
2021/04/01 00:24:04;;;;;;;0.60;0.60;;;9.00;99.90;;;;;;6154149;23;20178;-82
2021/04/01 00:26:33;;;;;;;0.60;0.60;;;8.30;99.90;;;;;;6151191;23;20177;-81
2021/04/01 00:28:59;;;;;;;0.60;0.60;;;8.00;99.90;;;;;;6152429;23;20185;-82
2021/04/01 00:31:27;;;;;;;0.60;0.60;;;8.50;99.90;;;;;;6150642;23;20212;-81
2021/04/01 00:33:53;;;;;;;0.60;0.60;;;8.60;99.90;;;;;;6151292;23;20178;-82
2021/04/01 00:36:19;;;;;;;0.60;0.60;;;10.90;99.90;;;;;;6151860;23;20235;-82
2021/04/01 00:38:46;;;;;;;0.60;0.60;;;8.70;99.90;;;;;;6150822;23;20177;-81
2021/04/01 00:41:12;;;;;;;0.52;0.52;;;8.60;99.90;;;;;;6151101;23;20209;-81
2021/04/01 00:43:38;;;;;;;0.60;0.60;;;9.90;99.90;;;;;;6150402;23;20178;-81
2021/04/01 00:46:04;;;;;;;0.60;0.60;;;10.40;99.90;;;;;;6152118;23;20185;-81
2021/04/01 00:48:32;;;;;;;0.60;0.60;;;7.40;99.90;;;;;;6151790;23;20210;-80
2021/04/01 00:50:58;;;;;;;0.60;0.60;;;10.70;99.90;;;;;;6152670;23;20565;-80
2021/04/01 00:53:24;;;;;;;0.60;0.60;;;8.50;99.90;;;;;;6153049;23;20253;-80
2021/04/01 00:55:52;;;;;;;0.60;0.60;;;8.50;99.90;;;;;;6151839;23;20227;-80
2021/04/01 00:58:18;;;;;;;0.60;0.60;;;8.30;99.90;;;;;;6153488;23;20202;-80
2021/04/01 01:00:46;;;;;;;0.60;0.60;;;8.00;99.90;;;;;;6152486;23;20182;-81
2021/04/01 01:03:13;;;;;;;0.60;0.60;;;8.50;99.90;;;;;;6155938;23;20455;-81
2021/04/01 01:05:40;;;;;;;0.60;0.60;;;7.60;99.90;;;;;;6155828;23;20174;-81
2021/04/01 01:08:07;;;;;;;0.60;0.60;;;8.30;99.90;;;;;;6156123;23;20169;-80
2021/04/01 01:10:33;;;;;;;0.60;0.60;;;10.60;99.90;;;;;;6156756;23;20564;-80
2021/04/01 01:13:02;;;;;;;0.60;0.60;;;8.00;99.90;;;;;;6154994;23;20202;-80
2021/04/01 01:15:29;;;;;;;0.60;0.60;;;10.20;99.90;;;;;;6154829;23;20208;-81
2021/04/01 01:17:57;;;;;;;0.60;0.60;;;8.70;99.90;;;;;;6153847;23;20198;-80
2021/04/01 01:20:25;;;;;;;0.60;0.60;;;8.80;99.90;;;;;;6154433;23;20181;-81
2021/04/01 01:22:53;;;;;;;0.60;0.60;;;7.70;99.90;;;;;;6154556;23;20216;-80
2021/04/01 01:25:22;;;;;;;0.60;0.60;;;9.90;99.90;;;;;;6154099;23;20237;-80
2021/04/01 01:27:48;;;;;;;0.55;0.55;;;9.50;99.90;;;;;;6153985;23;20178;-80
2021/04/01 01:30:18;;;;;;;0.60;0.60;;;9.60;99.90;;;;;;6153486;23;20671;-80
2021/04/01 01:32:46;;;;;;;0.60;0.60;;;8.50;99.90;;;;;;6154442;23;20177;-80
2021/04/01 01:35:18;;;;;;;0.60;0.60;;;8.90;99.90;;;;;;6151300;23;20178;-79
2021/04/01 01:37:50;;;;;;;0.60;0.60;;;9.20;99.90;;;;;;6150699;23;20522;-80
2021/04/01 01:40:17;;;;;;;0.60;0.60;;;9.00;99.90;;;;;;6150417;23;20263;-80
2021/04/01 01:42:44;;;;;;;0.60;0.60;;;8.90;99.90;;;;;;6149607;23;20554;-80
2021/04/01 01:45:11;;;;;;;0.60;0.60;;;9.00;99.90;;;;;;6149906;23;20184;-80
2021/04/01 01:47:38;;;;;;;0.60;0.60;;;9.50;99.90;;;;;;6154278;23;20203;-80
2021/04/01 01:50:05;;;;;;;0.60;0.60;;;12.30;99.90;;;;;;6159443;23;20646;-80
2021/04/01 01:52:32;;;;;;;0.57;0.57;;;9.20;99.90;;;;;;6164959;23;20205;-81
2021/04/01 01:54:58;;;;;;;0.60;0.60;;;9.00;99.90;;;;;;6165260;23;20181;-81
2021/04/01 01:57:25;;;;;;;0.60;0.60;;;10.80;99.90;;;;;;6164034;23;20194;-81
2021/04/01 01:59:52;;;;;;;0.60;0.60;;;9.30;99.90;;;;;;6164994;23;20178;-81
2021/04/01 02:02:19;;;;;;;0.60;0.60;;;9.50;99.90;;;;;;6163624;23;20201;-81
2021/04/01 02:04:46;;;;;;;0.60;0.60;;;9.40;99.90;;;;;;6163933;23;20178;-81
2021/04/01 02:07:14;;;;;;;0.52;0.52;;;9.30;99.90;;;;;;6165050;23;20178;-81
2021/04/01 02:09:46;;;;;;;0.60;0.60;;;9.40;99.90;;;;;;6163874;23;20623;-80
2021/04/01 02:12:13;;;;;;;0.60;0.60;;;8.60;99.90;;;;;;6163401;22;20188;-81
2021/04/01 02:14:39;;;;;;;0.57;0.57;;;8.90;99.90;;;;;;6151880;23;20158;-80
2021/04/01 02:17:07;;;;;;;0.60;0.60;;;9.00;99.90;;;;;;6150286;23;20261;-81
2021/04/01 02:19:34;;;;;;;0.60;0.60;;;9.00;99.90;;;;;;6149962;23;20182;-80
2021/04/01 02:22:00;;;;;;;0.60;0.60;;;10.30;99.90;;;;;;6152039;23;20267;-80
2021/04/01 02:24:26;;;;;;;0.60;0.60;;;8.40;99.90;;;;;;6148057;23;20340;-80
2021/04/01 02:26:54;;;;;;;0.60;0.60;;;10.00;99.90;;;;;;6148290;23;20231;-81
2021/04/01 02:29:21;;;;;;;0.60;0.60;;;8.80;99.90;;;;;;6149212;23;20186;-80
2021/04/01 02:31:47;;;;;;;0.57;0.57;;;8.10;99.90;;;;;;6149646;23;20219;-80
2021/04/01 02:34:14;;;;;;;0.60;0.60;;;8.70;99.90;;;;;;6148793;23;20178;-80
2021/04/01 02:36:41;;;;;;;0.60;0.60;;;9.00;99.90;;;;;;6149023;23;20182;-80
2021/04/01 02:39:07;;;;;;;0.57;0.57;;;8.00;99.90;;;;;;6149344;23;20178;-80
2021/04/01 02:41:33;;;;;;;0.60;0.60;;;8.70;99.90;;;;;;6150435;23;20208;-80
2021/04/01 02:44:00;;;;;;;0.60;0.60;;;8.70;99.90;;;;;;6150228;23;20226;-80
2021/04/01 02:46:26;;;;;;;0.60;0.60;;;8.70;99.90;;;;;;6149966;23;20223;-80
2021/04/01 02:48:53;;;;;;;0.60;0.60;;;8.70;99.90;;;;;;6149967;23;20569;-80
2021/04/01 02:51:20;;;;;;;0.60;0.60;;;10.20;99.90;;;;;;6150862;23;20198;-80
2021/04/01 02:53:46;;;;;;;0.52;0.52;;;8.80;99.90;;;;;;6147380;23;20184;-80
2021/04/01 02:56:13;;;;;;;0.60;0.60;;;8.80;99.90;;;;;;6146862;23;20247;-80
2021/04/01 02:58:41;;;;;;;0.55;0.55;;;8.80;99.90;;;;;;6146643;23;20202;-80
2021/04/01 03:01:08;;;;;;;0.60;0.60;;;8.80;99.90;;;;;;6147151;23;20181;-80
2021/04/01 03:03:37;;;;;;;0.60;0.60;;;8.80;99.90;;;;;;6151041;23;20170;-80
2021/04/01 03:06:04;;;;;;;0.60;0.60;;;8.80;99.90;;;;;;6150803;23;20247;-80
2021/04/01 03:08:31;;;;;;;0.60;0.60;;;8.80;99.90;;;;;;6152229;23;20632;-80
2021/04/01 03:10:57;;;;;;;0.60;0.60;;;9.00;99.90;;;;;;6151863;23;20251;-80
2021/04/01 03:13:24;;;;;;;0.60;0.60;;;8.90;99.90;;;;;;6150941;23;20606;-80
2021/04/01 03:15:51;;;;;;;0.60;0.60;;;8.80;99.90;;;;;;6152039;23;20510;-80
2021/04/01 03:18:20;;;;;;;0.60;0.60;;;8.70;99.90;;;;;;6153029;23;20209;-81
2021/04/01 03:20:47;;;;;;;0.60;0.60;;;8.80;99.90;;;;;;6161408;23;20216;-81
2021/04/01 03:23:13;;;;;;;0.60;0.60;;;8.80;99.90;;;;;;6160407;23;20414;-80
2021/04/01 03:25:41;;;;;;;0.60;0.60;;;8.80;99.90;;;;;;6158064;23;20174;-80
2021/04/01 03:28:07;;;;;;;0.60;0.60;;;8.70;99.90;;;;;;6152114;23;20182;-80
2021/04/01 03:30:34;;;;;;;0.52;0.52;;;8.50;99.90;;;;;;6148089;23;20181;-80
2021/04/01 03:33:01;;;;;;;0.60;0.60;;;8.50;99.90;;;;;;6147177;23;20205;-80
2021/04/01 03:35:27;;;;;;;0.60;0.60;;;8.40;99.90;;;;;;6147198;23;20239;-80
2021/04/01 03:37:56;;;;;;;0.60;0.60;;;8.50;99.90;;;;;;6147255;23;20198;-80
2021/04/01 03:40:23;;;;;;;0.60;0.60;;;8.50;99.90;;;;;;6147198;23;20178;-80
2021/04/01 03:42:50;;;;;;;0.60;0.60;;;8.90;99.90;;;;;;6147337;23;20213;-80
2021/04/01 03:45:17;;;;;;;0.57;0.57;;;8.90;99.90;;;;;;6147013;23;20626;-81
2021/04/01 03:47:45;;;;;;;0.60;0.60;;;8.90;99.90;;;;;;6147330;23;20203;-80
2021/04/01 03:50:14;;;;;;;0.50;0.50;;;9.00;99.90;;;;;;6146892;23;20177;-80
2021/04/01 03:52:41;;;;;;;0.60;0.60;;;9.00;99.90;;;;;;6146553;23;20505;-80
2021/04/01 03:55:18;;;;;;;0.50;0.50;;;9.20;99.90;;;;;;6148062;23;20186;-79
2021/04/01 03:57:45;;;;;;;0.60;0.60;;;9.20;99.90;;;;;;6147149;23;20186;-80
2021/04/01 04:00:16;;;;;;;0.60;0.60;;;9.10;99.90;;;;;;6147669;23;20177;-80
2021/04/01 04:02:54;;;;;;;0.60;0.60;;;8.90;99.90;;;;;;6148196;23;20166;-79
2021/04/01 04:05:32;;;;;;;0.60;0.60;;;8.90;99.90;;;;;;6149069;23;20220;-78
2021/04/01 04:08:36;;;;;;;0.50;0.50;;;8.70;99.90;;;;;;6147608;23;20198;-82
2021/04/01 04:11:13;;;;;;;0.60;0.60;;;8.60;99.90;;;;;;6149220;23;20173;-80
2021/04/01 04:13:45;;;;;;;0.60;0.60;;;8.90;99.90;;;;;;6148217;23;20210;-80
2021/04/01 04:16:12;;;;;;;0.60;0.60;;;8.90;99.90;;;;;;6147363;23;20174;-80
2021/04/01 04:18:39;;;;;;;0.60;0.60;;;9.00;99.90;;;;;;6147069;23;20197;-80
2021/04/01 04:21:06;;;;;;;0.60;0.60;;;9.10;99.90;;;;;;6147126;23;20182;-79
2021/04/01 04:23:33;;;;;;;0.60;0.60;;;9.00;99.90;;;;;;6145998;23;20188;-79
2021/04/01 04:25:59;;;;;;;0.60;0.60;;;9.00;99.90;;;;;;6145343;23;20170;-79
2021/04/01 04:28:31;;;;;;;0.60;0.60;;;8.90;99.90;;;;;;6145697;23;20185;-79
2021/04/01 04:30:57;;;;;;;0.60;0.60;;;9.10;99.90;;;;;;6145639;23;20343;-79
2021/04/01 04:33:25;;;;;;;0.60;0.60;;;9.20;99.90;;;;;;6145588;23;20236;-79
2021/04/01 04:35:51;;;;;;;0.60;0.60;;;9.20;99.90;;;;;;6146275;23;20232;-79
2021/04/01 04:38:17;;;;;;;0.50;0.50;;;9.10;99.90;;;;;;6145835;23;20205;-79
2021/04/01 04:40:44;;;;;;;0.50;0.50;;;9.10;99.90;;;;;;6146342;23;20377;-80
2021/04/01 04:43:10;;;;;;;0.60;0.60;;;9.10;99.90;;;;;;6142739;23;20185;-80
2021/04/01 04:45:36;;;;;;;0.60;0.60;;;9.10;99.90;;;;;;6146221;23;20635;-80
2021/04/01 04:48:02;;;;;;;0.60;0.60;;;9.00;99.90;;;;;;6146449;23;20174;-80
2021/04/01 04:50:30;;;;;;;0.60;0.60;;;9.10;99.90;;;;;;6145732;23;20227;-80
2021/04/01 04:52:56;;;;;;;0.50;0.50;;;9.10;99.90;;;;;;6145765;23;20181;-80
2021/04/01 04:55:23;;;;;;;0.50;0.50;;;9.00;99.90;;;;;;6145819;23;20188;-79
2021/04/01 04:57:53;;;;;;;0.60;0.60;;;9.20;99.90;;;;;;6146243;23;20205;-80
2021/04/01 05:00:41;;;;;;;0.50;0.50;;;9.40;99.90;;;;;;6146336;23;20178;-80
2021/04/01 05:05:53;;;;;;;0.60;0.60;;;9.40;99.90;;;;;;6145897;23;20738;-80
2021/04/01 05:08:19;;;;;;;0.60;0.60;;;9.50;99.90;;;;;;6146165;23;20559;-80
2021/04/01 05:10:46;;;;;;;0.60;0.60;;;9.30;99.90;;;;;;6145676;23;20178;-80
2021/04/01 05:13:12;;;;;;;0.60;0.60;;;9.50;99.90;;;;;;6145686;23;20633;-79
2021/04/01 05:15:42;;;;;;;0.60;0.60;;;9.40;99.90;;;;;;6145597;23;20178;-79
2021/04/01 05:18:19;;;;;;;0.55;0.55;;;9.40;99.90;;;;;;6143878;23;20204;-79
2021/04/01 05:20:47;;;;;;;0.50;0.50;;;9.40;99.90;;;;;;6145897;23;20181;-79
2021/04/01 05:23:25;;;;;;;0.60;0.60;;;9.50;99.90;;;;;;6145773;23;20258;-79
2021/04/01 05:25:52;;;;;;;0.60;0.60;;;9.50;99.90;;;;;;6146434;23;20166;-79
2021/04/01 05:28:24;;;;;;;0.50;0.50;;;9.50;99.90;;;;;;6146789;23;20227;-79
2021/04/01 05:30:52;;;;;;;0.60;0.60;;;9.50;99.90;;;;;;6146026;23;20190;-79
2021/04/01 05:33:19;;;;;;;0.60;0.60;;;9.60;99.90;;;;;;6146065;23;20189;-79
2021/04/01 05:35:45;;;;;;;0.60;0.60;;;9.60;99.90;;;;;;6145509;23;20630;-79
2021/04/01 05:38:12;;;;;;;0.60;0.60;;;9.60;99.90;;;;;;6145831;23;20263;-79
2021/04/01 05:40:39;;;;;;;0.60;0.60;;;9.70;99.90;;;;;;6146016;23;20178;-79
2021/04/01 05:43:11;;;;;;;0.50;0.50;;;9.70;99.90;;;;;;6146399;23;20181;-79
2021/04/01 05:45:47;;;;;;;0.60;0.60;;;9.70;99.90;;;;;;6146372;23;20170;-81
2021/04/01 05:48:18;;;;;;;0.60;0.60;;;9.80;99.90;;;;;;6145553;23;20157;-80
2021/04/01 05:51:07;;;;;;;0.55;0.55;;;9.80;99.90;;;;;;6145705;23;20198;-79
2021/04/01 06:02:17;;;;;;;0.60;0.60;;;9.70;99.90;;;;;;6137854;23;20188;-79
2021/04/01 06:04:51;;;;;;;0.50;0.50;;;9.70;99.90;;;;;;6145350;23;20209;-79
2021/04/01 06:07:28;;;;;;;0.60;0.60;;;10.00;99.90;;;;;;6146007;23;20169;-79
2021/04/01 06:09:56;;;;;;;0.60;0.60;;;10.10;99.90;;;;;;6145652;23;20169;-79
2021/04/01 06:12:30;;;;;;;0.60;0.60;;;10.20;99.90;;;;;;6145168;23;20216;-79
2021/04/01 06:15:02;;;;;;;0.60;0.60;;;11.10;99.90;;;;;;6145060;23;20475;-79
2021/04/01 06:17:30;;;;;;;0.60;0.60;;;10.60;99.90;;;;;;6146413;23;20396;-79
2021/04/01 06:19:59;;;;;;;0.60;0.60;;;10.50;99.90;;;;;;6146689;23;20287;-79
2021/04/01 06:22:26;;;;;;;0.60;0.60;;;10.30;99.90;;;;;;6146803;23;20500;-78
2021/04/01 06:24:54;;;;;;;0.60;0.60;;;10.40;99.90;;;;;;6146894;23;20260;-79
2021/04/01 06:27:26;;;;;;;0.60;0.60;;;10.40;99.90;;;;;;6147317;23;20181;-79
2021/04/01 06:30:17;;;;;;;0.60;0.60;;;10.40;99.90;;;;;;6147036;23;20249;-78
2021/04/01 06:32:46;;;;;;;0.60;0.60;;;10.40;99.90;;;;;;6146780;23;20311;-79
2021/04/01 06:35:21;;;;;;;0.60;0.60;;;10.50;99.90;;;;;;6146260;23;20673;-79
2021/04/01 06:38:22;;;;;;;0.60;0.60;;;10.90;99.90;;;;;;6146965;23;20227;-79
2021/04/01 06:40:52;;;;;;;0.60;0.60;;;10.70;99.90;;;;;;6147486;23;20230;-77
2021/04/01 06:43:57;;;;;;;0.60;0.60;;;10.90;99.90;;;;;;6147342;23;20265;-77
2021/04/01 06:46:26;;;;;;;0.57;0.57;;;10.80;99.90;;;;;;6129432;23;20282;-77
2021/04/01 06:49:24;;;;;;;0.60;0.60;;;10.80;99.90;;;;;;6146863;23;20180;-78
2021/04/01 06:51:57;;;;;;;0.60;0.60;;;10.80;99.90;;;;;;6147022;23;20518;-83
2021/04/01 06:54:30;;;;;;;0.60;0.60;;;10.90;99.90;;;;;;6146720;23;20162;-79
2021/04/01 06:57:14;;;;;;;0.60;0.60;;;10.90;99.90;;;;;;6146459;23;20310;-82
2021/04/01 06:59:57;;;;;;;0.60;0.60;;;10.90;99.90;;;;;;6146309;23;20166;-82
2021/04/01 07:02:33;;;;;;;0.60;0.60;;;11.20;99.90;;;;;;6146704;23;20166;-82
2021/04/01 07:05:16;;;;;;;0.60;0.60;;;11.30;99.90;;;;;;6146079;23;20610;-79
2021/04/01 07:07:49;;;;;;;0.60;0.60;;;11.40;99.90;;;;;;6146581;23;20662;-79
2021/04/01 07:10:22;;;;;;;0.60;0.60;;;11.40;99.90;;;;;;6146910;23;20162;-82
2021/04/01 07:12:50;;;;;;;0.60;0.60;;;11.60;99.90;;;;;;6146942;23;20248;-81
2021/04/01 07:15:22;;;;;;;0.60;0.60;;;11.80;99.90;;;;;;6146826;23;20513;-78
2021/04/01 07:17:54;;;;;;;0.57;0.57;;;11.80;99.90;;;;;;6147660;23;20653;-78
2021/04/01 07:20:35;;;;;;;0.60;0.60;;;12.00;99.90;;;;;;6144887;23;20193;-79
2021/04/01 07:23:31;;;;;;;0.60;0.60;;;11.90;99.90;;;;;;6146772;23;20162;-80
2021/04/01 07:34:39;;;;;;;0.60;0.60;;;12.40;99.90;;;;;;6146785;23;20169;-80
2021/04/01 07:46:00;;;;;;;0.60;0.60;;;12.40;99.90;;;;;;6063860;23;20181;-80
2021/04/01 07:48:37;;;;;;;0.60;0.60;;;12.40;99.90;;;;;;6146384;23;20426;-81
2021/04/01 07:51:03;;;;;;;0.60;0.60;;;12.30;99.90;;;;;;6146633;23;20198;-80
2021/04/01 07:53:30;;;;;;;0.60;0.60;;;12.30;99.90;;;;;;6146547;23;20200;-77
2021/04/01 07:56:07;;;;;;;0.60;0.60;;;12.40;99.90;;;;;;6146397;23;20346;-81
2021/04/01 08:01:46;;;;;;;0.60;0.60;;;12.30;99.90;;;;;;6121740;23;20230;-79
2021/04/01 08:04:17;;;;;;;0.60;0.60;;;12.40;99.90;;;;;;6148921;23;20197;-79
2021/04/01 08:06:44;;;;;;;0.60;0.60;;;12.30;99.90;;;;;;6155097;23;20166;-80
2021/04/01 08:09:18;;;;;;;0.60;0.60;;;12.40;99.90;;;;;;6163109;23;20177;-80
2021/04/01 08:11:47;;;;;;;0.60;0.60;;;12.40;99.90;;;;;;6167389;23;20160;-81
2021/04/01 08:14:17;;;;;;;0.60;0.60;;;12.30;99.90;;;;;;6152957;23;20362;-81
2021/04/01 08:16:53;;;;;;;0.60;0.60;;;12.30;99.90;;;;;;6154943;23;20184;-81
2021/04/01 08:19:22;;;;;;;0.60;0.60;;;12.30;99.90;;;;;;6146880;23;20614;-82
2021/04/01 08:21:49;;;;;;;0.60;0.60;;;12.40;99.90;;;;;;6144707;23;20166;-82
2021/04/01 08:24:22;;;;;;;0.60;0.60;;;12.40;99.90;;;;;;6143625;23;20180;-82
2021/04/01 08:27:11;;;;;;;0.60;0.60;;;12.50;99.90;;;;;;6147724;23;20162;-82
2021/04/01 08:33:08;;;;;;;0.60;0.60;;;12.60;99.90;;;;;;6147921;23;20235;-82
2021/04/01 08:35:36;;;;;;;0.60;0.60;;;12.30;99.90;;;;;;6148038;23;20649;-82
2021/04/01 08:38:11;;;;;;;0.60;0.60;;;12.30;99.90;;;;;;6148400;23;20202;-82
2021/04/01 08:40:37;;;;;;;0.60;0.60;;;12.20;99.90;;;;;;6148252;23;20169;-82
2021/04/01 08:43:34;;;;;;;0.60;0.60;;;12.30;99.90;;;;;;6148202;23;20182;-82
2021/04/01 08:46:30;;;;;;;0.50;0.50;;;12.40;99.90;;;;;;6147649;23;20496;-82
2021/04/01 08:49:09;;;;;;;0.60;0.60;;;12.50;99.90;;;;;;6144509;23;20387;-79
2021/04/01 08:51:53;;;;;;;0.60;0.60;;;12.60;99.90;;;;;;6148133;23;20200;-82
2021/04/01 08:54:26;;;;;;;0.60;0.60;;;12.50;99.90;;;;;;6156662;23;20169;-82
2021/04/01 08:57:02;;;;;;;0.60;0.60;;;12.70;99.90;;;;;;6157223;23;20231;-82
2021/04/01 08:59:36;;;;;;;0.60;0.60;;;12.70;99.90;;;;;;6157188;23;20474;-82
2021/04/01 09:02:03;;;;;;;0.60;0.60;;;12.70;99.90;;;;;;6157112;23;20603;-83
2021/04/01 09:04:32;;;;;;;0.60;0.60;;;12.80;99.90;;;;;;6158834;23;20318;-82
2021/04/01 09:07:05;;;;;;;0.60;0.60;;;12.50;99.90;;;;;;6145934;23;20261;-84
2021/04/01 09:09:34;;;;;;;0.60;0.60;;;12.50;99.90;;;;;;6145510;23;20168;-84
2021/04/01 09:12:18;;;;;;;0.60;0.60;;;12.60;99.90;;;;;;6159104;23;20253;-84
2021/04/01 09:14:57;;;;;;;0.60;0.60;;;12.70;99.90;;;;;;6171568;23;20178;-82
2021/04/01 09:17:42;;;;;;;0.60;0.60;;;12.70;99.90;;;;;;6173928;23;20197;-82
2021/04/01 09:20:12;;;;;;;0.52;0.52;;;13.20;99.90;;;;;;6172402;23;20180;-82
2021/04/01 09:22:46;;;;;;;0.60;0.60;;;11.90;99.90;;;;;;6172676;23;20185;-82
2021/04/01 09:25:14;;;;;;;0.60;0.60;;;14.10;99.90;;;;;;6176627;23;20165;-82
2021/04/01 09:27:53;;;;;;;0.60;0.60;;;14.80;99.90;;;;;;6175224;23;20174;-82
2021/04/01 09:30:23;;;;;;;0.60;0.60;;;13.40;99.90;;;;;;6174975;23;20170;-82
2021/04/01 09:32:52;;;;;;;0.60;0.60;;;12.50;99.90;;;;;;6175224;23;20201;-82
2021/04/01 09:35:19;;;;;;;0.60;0.60;;;12.90;99.90;;;;;;6173803;23;20231;-82
2021/04/01 09:38:01;;;;;;;0.60;0.60;;;12.70;99.90;;;;;;6173671;23;20185;-82
2021/04/01 09:40:35;;;;;;;0.60;0.60;;;13.10;99.90;;;;;;6174694;22;20206;-89
2021/04/01 09:43:31;;;;;;;0.60;0.60;;;11.00;99.90;;;;;;6122129;23;20166;-88
2021/04/01 09:46:19;;;;;;;0.60;0.60;;;11.00;99.90;;;;;;6123464;23;20167;-89
2021/04/01 09:48:50;;;;;;;0.60;0.60;;;16.80;99.90;;;;;;6122284;22;20619;-88
2021/04/01 09:51:18;;;;;;;0.60;0.60;;;13.30;99.90;;;;;;6118591;23;20208;-86
2021/04/01 09:54:02;;;;;;;0.50;0.50;;;12.80;99.90;;;;;;6120071;23;20775;-89
2021/04/01 09:56:37;;;;;;;0.60;0.60;;;12.10;99.90;;;;;;6120055;23;20194;-87
2021/04/01 09:59:35;;;;;;;;;;;;;;;;;;;;;
2021/04/01 10:02:41;;;;;;;0.60;0.60;;;13.00;99.90;;;;;;6119549;22;20826;-88
2021/04/01 10:05:27;;;;;;;0.60;0.60;;;13.60;99.90;;;;;;6120125;23;20599;-89
2021/04/01 10:08:03;;;;;;;0.60;0.60;;;14.60;99.90;;;;;;6118639;23;20178;-88
2021/04/01 10:10:50;;;;;;;0.60;0.60;;;13.90;99.90;;;;;;6118241;23;20196;-88
2021/04/01 10:13:27;;;;;;;0.60;0.60;;;14.50;99.90;;;;;;6118977;22;20182;-89
2021/04/01 10:15:58;;;;;;;0.50;0.50;;;13.30;99.90;;;;;;6119858;23;20629;-88
2021/04/01 10:18:47;;;;;;;0.60;0.60;;;17.00;99.90;;;;;;6120161;23;20198;-88
2021/04/01 10:21:14;;;;;;;0.60;0.60;;;12.80;99.90;;;;;;6120740;22;20236;-88
2021/04/01 10:23:46;;;;;;;0.60;0.60;;;12.50;99.90;;;;;;6120039;22;20250;-89
2021/04/01 10:26:24;;;;;;;0.60;0.60;;;14.40;99.90;;;;;;6118791;22;20179;-89
2021/04/01 10:29:17;;;;;;;0.60;0.60;;;12.60;99.90;;;;;;6117785;23;20178;-89
2021/04/01 10:32:19;;;;;;;0.60;0.60;;;15.10;99.90;;;;;;6119175;23;20257;-89
2021/04/01 10:34:53;;;;;;;0.60;0.60;;;12.70;99.90;;;;;;6120130;22;20174;-89
2021/04/01 10:37:22;;;;;;;0.50;0.50;;;14.70;99.90;;;;;;6119779;23;20665;-88
2021/04/01 10:40:10;;;;;;;0.50;0.50;;;11.10;99.90;;;;;;6118714;23;20628;-90
2021/04/01 10:42:41;;;;;;;0.60;0.60;;;11.60;99.90;;;;;;6120238;23;20202;-89
2021/04/01 10:46:06;;;;;;;0.60;0.60;;;13.40;99.90;;;;;;6117157;23;20198;-89
2021/04/01 10:49:04;;;;;;;0.60;0.60;;;13.40;99.90;;;;;;6039458;23;20173;-90
2021/04/01 10:51:51;;;;;;;0.55;0.55;;;13.10;99.90;;;;;;5998727;23;20432;-88
2021/04/01 10:54:37;;;;;;;0.60;0.60;;;14.50;99.90;;;;;;6108608;23;20276;-89
2021/04/01 10:57:07;;;;;;;0.60;0.60;;;13.00;99.90;;;;;;6116752;23;20254;-88
2021/04/01 10:59:41;;;;;;;0.50;0.50;;;14.00;99.90;;;;;;6115266;23;20765;-88
2021/04/01 11:02:13;;;;;;;0.60;0.60;;;13.40;99.90;;;;;;6116605;23;20182;-88
2021/04/01 11:04:44;;;;;;;0.60;0.60;;;16.00;99.90;;;;;;6117786;23;20260;-88
2021/04/01 11:07:22;;;;;;;0.50;0.50;;;14.30;99.90;;;;;;6117619;23;20185;-88
2021/04/01 11:10:43;;;;;;;0.60;0.60;;;13.40;99.90;;;;;;6115741;23;20166;-88
2021/04/01 11:13:14;;;;;;;0.60;0.60;;;14.00;99.90;;;;;;6125493;23;20186;-88
2021/04/01 11:15:47;;;;;;;0.60;0.60;;;13.90;99.90;;;;;;6120717;23;20630;-88
2021/04/01 11:18:17;;;;;;;0.60;0.60;;;13.30;99.90;;;;;;6119346;22;20200;-87
2021/04/01 11:20:57;;;;;;;0.60;0.60;;;14.90;99.90;;;;;;6121548;23;20547;-89
2021/04/01 11:23:31;;;;;;;0.50;0.50;;;14.60;99.90;;;;;;6124778;22;20178;-88
2021/04/01 11:26:15;;;;;;;0.60;0.60;;;12.90;99.90;;;;;;6144673;23;20165;-88
2021/04/01 11:28:50;;;;;;;0.60;0.60;;;13.40;99.90;;;;;;6143903;23;20220;-88
2021/04/01 11:31:23;;;;;;;0.60;0.60;;;10.60;99.90;;;;;;6145159;23;20165;-88
2021/04/01 11:33:54;;;;;;;0.60;0.60;;;13.60;99.90;;;;;;6144351;23;20171;-87
2021/04/01 11:36:26;;;;;;;0.60;0.60;;;10.90;99.90;;;;;;6127478;23;20216;-88
2021/04/01 11:38:54;;;;;;;0.60;0.60;;;11.50;99.90;;;;;;6123412;23;20190;-89
2021/04/01 11:41:23;;;;;;;0.60;0.60;;;10.50;99.90;;;;;;6123365;23;20206;-89
2021/04/01 11:43:51;;;;;;;0.52;0.52;;;12.90;99.90;;;;;;6123513;23;20179;-88
2021/04/01 11:46:20;;;;;;;0.60;0.60;;;11.00;99.90;;;;;;6123630;23;20232;-89
2021/04/01 11:48:50;;;;;;;0.60;0.60;;;10.20;99.90;;;;;;6123655;23;20253;-88
2021/04/01 11:51:19;;;;;;;0.60;0.60;;;9.40;99.90;;;;;;6122326;23;20179;-87
2021/04/01 11:53:46;;;;;;;0.60;0.60;;;12.00;99.90;;;;;;6121796;23;20467;-89
2021/04/01 11:56:12;;;;;;;0.60;0.60;;;9.30;99.90;;;;;;6122439;23;20186;-88
2021/04/01 11:58:39;;;;;;;0.60;0.60;;;12.40;99.90;;;;;;6121899;23;20765;-88
2021/04/01 12:01:09;;;;;;;0.60;0.60;;;11.50;99.90;;;;;;6122228;23;20174;-88
2021/04/01 12:04:10;;;;;;;0.60;0.60;;;10.00;99.90;;;;;;6122420;23;20686;-90
2021/04/01 12:07:09;;;;;;;0.60;0.60;;;11.30;99.90;;;;;;6123804;23;20193;-90
2021/04/01 12:09:36;;;;;;;0.60;0.60;;;10.70;99.90;;;;;;6122677;23;20178;-89
2021/04/01 12:12:06;;;;;;;0.60;0.60;;;9.70;99.90;;;;;;6122240;23;20264;-88
2021/04/01 12:14:33;;;;;;;0.60;0.60;;;10.00;99.90;;;;;;6122425;23;20228;-88
2021/04/01 12:17:00;;;;;;;0.60;0.60;;;10.80;99.90;;;;;;6122167;23;20182;-88
2021/04/01 12:19:27;;;;;;;0.60;0.60;;;10.00;99.90;;;;;;6122345;23;20218;-88
2021/04/01 12:21:54;;;;;;;0.60;0.60;;;11.30;99.90;;;;;;6121997;23;20178;-88
2021/04/01 12:24:20;;;;;;;0.60;0.60;;;11.50;99.90;;;;;;6122303;23;20225;-89
2021/04/01 12:26:49;;;;;;;0.60;0.60;;;9.10;99.90;;;;;;6121883;23;20253;-88
2021/04/01 12:29:15;;;;;;;0.60;0.60;;;10.30;99.90;;;;;;6121783;23;20181;-88
2021/04/01 12:31:45;;;;;;;0.60;0.60;;;10.10;99.90;;;;;;6122331;23;20509;-88
2021/04/01 12:34:23;;;;;;;0.60;0.60;;;10.60;99.90;;;;;;6122130;23;20171;-89
2021/04/01 12:36:50;;;;;;;0.60;0.60;;;12.20;99.90;;;;;;6122115;23;20258;-87
2021/04/01 12:39:27;;;;;;;0.60;0.60;;;11.30;99.90;;;;;;6122140;23;20200;-87
2021/04/01 12:41:53;;;;;;;0.60;0.60;;;11.30;99.90;;;;;;6121760;23;20200;-88
2021/04/01 12:44:20;;;;;;;0.60;0.60;;;10.20;99.90;;;;;;6121815;23;20300;-88
2021/04/01 12:46:46;;;;;;;0.60;0.60;;;10.60;99.90;;;;;;6121724;23;20174;-88
2021/04/01 12:49:16;;;;;;;0.52;0.52;;;9.90;99.90;;;;;;6121530;23;20506;-88
2021/04/01 12:51:44;;;;;;;0.60;0.60;;;12.70;99.90;;;;;;6122447;23;20230;-89
2021/04/01 12:54:13;;;;;;;0.60;0.60;;;10.50;99.90;;;;;;6122187;23;20701;-88
2021/04/01 12:56:43;;;;;;;0.60;0.60;;;11.90;99.90;;;;;;6121891;23;20183;-88
2021/04/01 12:59:13;;;;;;;0.60;0.60;;;10.00;99.90;;;;;;6122108;23;20202;-88
2021/04/01 13:01:42;;;;;;;0.60;0.60;;;11.40;99.90;;;;;;6122218;23;20171;-88
2021/04/01 13:04:11;;;;;;;0.60;0.60;;;11.60;99.90;;;;;;6122103;23;20498;-88
2021/04/01 13:06:44;;;;;;;0.60;0.60;;;11.90;99.90;;;;;;6122271;23;20512;-88
2021/04/01 13:09:26;;;;;;;0.60;0.60;;;10.70;99.90;;;;;;6122317;23;20158;-88
2021/04/01 13:11:53;;;;;;;0.60;0.60;;;11.20;99.90;;;;;;6122063;23;20217;-88
2021/04/01 13:14:21;;;;;;;0.60;0.60;;;13.40;99.90;;;;;;6121982;23;20855;-87
2021/04/01 13:16:48;;;;;;;0.60;0.60;;;11.70;99.90;;;;;;6121734;23;20205;-87
2021/04/01 13:19:15;;;;;;;0.60;0.60;;;11.20;99.90;;;;;;6121842;23;20252;-86
2021/04/01 13:21:52;;;;;;;0.60;0.60;;;10.60;99.90;;;;;;6122260;23;20182;-87
2021/04/01 13:24:24;;;;;;;0.60;0.60;;;10.80;99.90;;;;;;6121068;23;20197;-86
2021/04/01 13:26:51;;;;;;;0.60;0.60;;;13.60;99.90;;;;;;6122251;23;20166;-85
2021/04/01 13:29:20;;;;;;;0.60;0.60;;;13.00;99.90;;;;;;6122192;23;20178;-86
2021/04/01 13:31:50;;;;;;;0.60;0.60;;;13.50;99.90;;;;;;6122058;23;20174;-86
2021/04/01 13:34:21;;;;;;;0.60;0.60;;;14.20;99.90;;;;;;6122026;23;20178;-86
2021/04/01 13:36:49;;;;;;;0.60;0.60;;;11.00;99.90;;;;;;6122011;23;20265;-86
2021/04/01 13:39:21;;;;;;;0.60;0.60;;;11.60;99.90;;;;;;6123127;23;20209;-86
2021/04/01 13:42:06;;;;;;;0.60;0.60;;;11.60;99.90;;;;;;6123337;23;20233;-86
2021/04/01 13:44:37;;;;;;;0.60;0.60;;;13.80;99.90;;;;;;6123994;23;20179;-86
2021/04/01 13:47:04;;;;;;;0.60;0.60;;;10.90;99.90;;;;;;6125877;23;20219;-86
2021/04/01 13:49:32;;;;;;;0.50;0.50;;;12.20;99.90;;;;;;6121399;22;20720;-85
2021/04/01 13:52:06;;;;;;;0.60;0.60;;;11.00;99.90;;;;;;6120098;23;20257;-85
2021/04/01 13:54:45;;;;;;;0.60;0.60;;;11.00;99.90;;;;;;6119061;23;20182;-86